createdAt,value
2022-09-23T00:04:01.344Z,1.8
2022-09-23T00:11:26.023Z,1.8
2022-09-23T00:17:53.045Z,1.6
2022-09-23T00:22:57.812Z,1.7
2022-09-23T00:30:22.792Z,1.6
2022-09-23T00:40:32.186Z,1.5
2022-09-23T00:46:34.611Z,1.5
2022-09-23T00:53:59.393Z,1.5
2022-09-23T01:01:24.172Z,1.4
2022-09-23T01:06:28.883Z,1.4
2022-09-23T01:12:39.509Z,1.4
2022-09-23T01:18:50.195Z,1.4
2022-09-23T01:25:00.816Z,1.3
2022-09-23T01:31:11.757Z,1.5
2022-09-23T01:37:22.209Z,1.4
2022-09-23T01:43:32.861Z,1.7
2022-09-23T01:49:35.308Z,1.5
2022-09-23T01:55:45.974Z,1.4
2022-09-23T02:01:56.825Z,1.8
2022-09-23T02:08:07.313Z,1.9
2022-09-23T02:14:18.005Z,1.8
2022-09-23T02:20:28.632Z,1.5
2022-09-23T02:26:39.300Z,1.8
2022-09-23T02:32:49.992Z,1.6
2022-09-23T02:39:00.636Z,1.6
2022-09-23T02:46:17.442Z,1.5
2022-09-23T02:51:30.205Z,1
2022-09-23T02:57:40.826Z,1
2022-09-23T03:03:51.486Z,1.3
2022-09-23T03:10:02.172Z,1.3
2022-09-23T03:16:12.926Z,1.1
2022-09-23T03:22:23.465Z,1.2
2022-09-23T03:28:34.198Z,0.9
2022-09-23T03:34:44.815Z,0.9
2022-09-23T03:40:55.544Z,0.9
2022-09-23T03:47:06.174Z,0.8
2022-09-23T03:53:08.593Z,0.7
2022-09-23T03:59:19.290Z,0.9
2022-09-23T04:05:29.966Z,1
2022-09-23T04:11:40.639Z,1
2022-09-23T04:17:51.299Z,1
2022-09-23T04:24:01.967Z,1
2022-09-23T04:30:12.596Z,1.2
2022-09-23T04:36:23.276Z,1
2022-09-23T04:42:33.990Z,0.9
2022-09-23T04:48:44.753Z,1
2022-09-23T04:54:55.302Z,0.8
2022-09-23T05:01:06.003Z,0.6
2022-09-23T05:07:16.596Z,0.6
2022-09-23T05:13:27.286Z,0.4
2022-09-23T05:18:40.217Z,0.4
2022-09-23T05:24:50.874Z,0.5
2022-09-23T05:31:01.579Z,0.3
2022-09-23T05:37:12.197Z,0.4
2022-09-23T05:43:22.856Z,0.4
2022-09-23T05:50:39.494Z,0.3
2022-09-23T05:56:50.170Z,0.2
2022-09-23T06:03:00.859Z,0.3
2022-09-23T06:09:11.451Z,0.4
2022-09-23T06:15:22.155Z,0.6
2022-09-23T06:21:32.828Z,0.8
2022-09-23T06:27:43.464Z,1.1
2022-09-23T06:34:05.573Z,2.3
2022-09-23T06:40:04.854Z,3.5
2022-09-23T06:46:15.508Z,4.2
2022-09-23T06:52:17.976Z,5.4
2022-09-23T06:58:28.590Z,6.4
2022-09-23T07:04:39.253Z,6.8
2022-09-23T07:10:49.966Z,6.8
2022-09-23T07:17:00.592Z,6.6
2022-09-23T07:23:11.247Z,7
2022-09-23T07:29:21.927Z,6.9
2022-09-23T07:35:32.619Z,8.1
2022-09-23T07:41:43.257Z,8.8
2022-09-23T07:48:10.332Z,9.4
2022-09-23T07:54:12.799Z,9.4
2022-09-23T08:00:23.579Z,10.1
2022-09-23T08:06:34.139Z,10.8
2022-09-23T08:12:44.789Z,11.2
2022-09-23T08:18:55.503Z,12.1
2022-09-23T08:25:08.417Z,12.9
2022-09-23T08:31:17.044Z,12.3
2022-09-23T08:37:27.465Z,12.9
2022-09-23T08:43:38.176Z,13
2022-09-23T08:49:40.610Z,13
2022-09-23T08:54:45.341Z,12.8
2022-09-23T09:00:56.001Z,13.4
2022-09-23T09:07:31.658Z,13.2
2022-09-23T09:13:17.300Z,12.1
2022-09-23T09:19:28.031Z,10.9
2022-09-23T09:25:38.641Z,10
2022-09-23T09:31:49.358Z,10.4
2022-09-23T09:38:00.042Z,9.7
2022-09-23T09:44:10.702Z,9.7
2022-09-23T09:50:13.147Z,9.2
2022-09-23T09:56:23.801Z,8.8
2022-09-23T10:02:34.415Z,8.7
2022-09-23T10:08:45.057Z,8.7
2022-09-23T10:14:55.748Z,9.5
2022-09-23T12:49:22.636Z,14.5
2022-09-23T12:54:27.192Z,14.1
2022-09-23T13:00:37.919Z,13.2
2022-09-23T13:05:42.702Z,13.2
2022-09-23T13:11:53.246Z,13.3
2022-09-23T13:18:04.301Z,13.8
2022-09-23T13:24:14.612Z,13.5
2022-09-23T13:30:26.690Z,12
2022-09-23T13:36:35.926Z,13
2022-09-23T13:42:46.801Z,13
2022-09-23T13:48:57.227Z,13.3
2022-09-23T13:56:13.865Z,13.3
2022-09-23T14:02:24.710Z,12.9
2022-09-23T14:08:35.177Z,13
2022-09-23T14:14:45.854Z,12.6
2022-09-23T14:20:56.550Z,11.8
2022-09-23T14:27:07.209Z,11.7
2022-09-23T14:33:17.871Z,11.9
2022-09-23T14:39:28.557Z,11.1
2022-09-23T14:45:39.297Z,11.1
2022-09-23T14:51:49.887Z,11.2
2022-09-23T14:57:52.350Z,11.1
2022-09-23T15:04:03.031Z,11.5
2022-09-23T15:10:13.661Z,11.7
2022-09-23T15:16:24.470Z,11.1
2022-09-23T15:21:37.279Z,11.1
2022-09-23T15:27:47.920Z,11.1
2022-09-23T15:33:58.701Z,10
2022-09-23T15:40:09.321Z,8.9
2022-09-23T15:46:20.009Z,8.2
2022-09-23T15:53:36.598Z,8.3
2022-09-23T15:59:47.226Z,8.4
2022-09-23T16:05:57.870Z,8.4
2022-09-23T16:12:08.572Z,8
2022-09-23T16:18:19.224Z,8
2022-09-23T16:24:29.856Z,7.3
2022-09-23T16:30:40.586Z,7.3
2022-09-23T16:36:51.220Z,6.3
2022-09-23T16:43:01.915Z,6.1
2022-09-23T16:49:12.584Z,6.2
2022-09-23T16:56:29.479Z,6.4
2022-09-23T17:02:39.919Z,6.5
2022-09-23T17:08:50.575Z,6.7
2022-09-23T17:13:55.229Z,6.8
2022-09-23T17:20:05.880Z,6.8
2022-09-23T17:26:16.575Z,6.7
2022-09-23T17:32:27.198Z,6.6
2022-09-23T17:38:37.903Z,6.8
2022-09-23T17:44:48.558Z,6.8
2022-09-23T17:51:15.610Z,6.3
2022-09-23T17:57:18.098Z,6.7
2022-09-23T18:03:28.751Z,6.7
2022-09-23T18:09:39.424Z,6.2
2022-09-23T18:15:50.289Z,6.5
2022-09-23T18:22:00.747Z,6
2022-09-23T18:28:11.396Z,5.4
2022-09-23T18:34:22.096Z,5.2
2022-09-23T18:40:32.822Z,5.1
2022-09-23T18:46:43.417Z,5.2
2022-09-23T18:52:54.065Z,5.2
2022-09-23T18:58:56.562Z,5.2
2022-09-23T19:05:07.222Z,5.1
2022-09-23T19:11:17.871Z,4.8
2022-09-23T19:17:28.583Z,4.4
2022-09-23T19:23:39.244Z,4.5
2022-09-23T19:29:49.882Z,4.1
2022-09-23T19:36:00.569Z,3.8
2022-09-23T19:42:11.201Z,3.8
2022-09-23T19:48:21.881Z,3.5
2022-09-23T19:55:38.526Z,3.4
2022-09-23T20:01:49.266Z,3.3
2022-09-23T20:07:59.809Z,3
2022-09-23T20:14:10.596Z,2.9
2022-09-23T20:21:51.664Z,2.6
2022-09-23T20:28:02.341Z,2.7
2022-09-23T20:34:13.017Z,2.4
2022-09-23T20:40:23.736Z,2.3
2022-09-23T20:46:34.555Z,2.4
2022-09-23T20:52:45.032Z,2.2
2022-09-23T20:58:47.486Z,2.1
2022-09-23T21:04:58.122Z,1.9
2022-09-23T21:11:08.852Z,1.9
2022-09-23T21:17:19.566Z,1.6
2022-09-23T21:22:24.211Z,1.4
2022-09-23T21:28:34.918Z,1.3
2022-09-23T21:34:45.526Z,1.4
2022-09-23T21:40:56.291Z,1.3
2022-09-23T21:47:07.019Z,1.3
2022-09-23T21:53:17.523Z,1.3
2022-09-23T22:00:34.201Z,0.8
2022-09-23T22:06:44.981Z,0.7
2022-09-23T22:11:49.530Z,0.7
2022-09-23T22:19:14.358Z,0.6
2022-09-23T22:26:39.144Z,0.4
2022-09-23T22:32:54.956Z,0.3
2022-09-23T22:37:54.520Z,0.3
2022-09-23T22:44:05.338Z,0.4
2022-09-23T22:50:32.265Z,0.3
2022-09-23T22:56:42.938Z,0.2
2022-09-23T23:02:45.420Z,0.1
2022-09-23T23:08:56.045Z,0
2022-09-23T23:15:06.723Z,0
2022-09-23T23:21:17.410Z,0
2022-09-23T23:27:28.057Z,0
2022-09-23T23:33:38.717Z,0
2022-09-23T23:39:49.421Z,0
2022-09-23T23:46:00.052Z,0
2022-09-23T23:52:10.714Z,0
2022-09-23T23:58:21.402Z,0
